sensor_id;sensor_type;location;lat;lon;timestamp;pressure;altitude;pressure_sealevel;temperature;humidity
51313;BME280;37397;53.226;10.400;2024-01-07T00:02:09;101555.56;;;2.05;72.77
51313;BME280;37397;53.226;10.400;2024-01-07T00:04:36;101569.66;;;2.08;72.62
51313;BME280;37397;53.226;10.400;2024-01-07T00:07:04;101552.78;;;1.94;72.51
51313;BME280;37397;53.226;10.400;2024-01-07T00:09:30;101578.09;;;2.08;72.43
51313;BME280;37397;53.226;10.400;2024-01-07T00:11:57;101558.78;;;1.96;72.31
51313;BME280;37397;53.226;10.400;2024-01-07T00:14:24;101557.59;;;1.93;72.44
51313;BME280;37397;53.226;10.400;2024-01-07T00:16:50;101572.06;;;2.03;72.35
51313;BME280;37397;53.226;10.400;2024-01-07T00:19:17;101576.88;;;2.06;72.32
51313;BME280;37397;53.226;10.400;2024-01-07T00:21:44;101574.47;;;2.04;72.41
51313;BME280;37397;53.226;10.400;2024-01-07T00:24:11;101571.66;;;2.04;72.47
51313;BME280;37397;53.226;10.400;2024-01-07T00:26:38;101586.94;;;2.07;72.17
51313;BME280;37397;53.226;10.400;2024-01-07T00:29:05;101572.88;;;1.96;72.30
51313;BME280;37397;53.226;10.400;2024-01-07T00:31:32;101590.16;;;2.05;72.34
51313;BME280;37397;53.226;10.400;2024-01-07T00:33:58;101591.75;;;1.99;72.22
51313;BME280;37397;53.226;10.400;2024-01-07T00:36:25;101591.75;;;1.99;72.14
51313;BME280;37397;53.226;10.400;2024-01-07T00:38:52;101575.69;;;1.89;72.22
51313;BME280;37397;53.226;10.400;2024-01-07T00:41:19;101574.06;;;1.91;72.05
51313;BME280;37397;53.226;10.400;2024-01-07T00:43:45;101600.59;;;2.01;71.95
51313;BME280;37397;53.226;10.400;2024-01-07T00:46:12;101603.41;;;2.01;72.15
51313;BME280;37397;53.226;10.400;2024-01-07T00:48:38;101610.66;;;2.02;72.12
51313;BME280;37397;53.226;10.400;2024-01-07T00:51:05;101605.84;;;1.92;72.04
51313;BME280;37397;53.226;10.400;2024-01-07T00:53:32;101602.22;;;1.91;71.89
51313;BME280;37397;53.226;10.400;2024-01-07T00:55:58;101616.72;;;1.97;71.99
51313;BME280;37397;53.226;10.400;2024-01-07T00:58:25;101623.53;;;1.99;72.21
51313;BME280;37397;53.226;10.400;2024-01-07T01:00:51;101631.19;;;1.99;72.01
51313;BME280;37397;53.226;10.400;2024-01-07T01:03:20;101627.97;;;1.97;71.98
51313;BME280;37397;53.226;10.400;2024-01-07T01:05:47;101617.50;;;1.94;72.14
51313;BME280;37397;53.226;10.400;2024-01-07T01:08:14;101640.41;;;1.96;72.16
51313;BME280;37397;53.226;10.400;2024-01-07T01:10:41;101632.78;;;1.89;71.99
51313;BME280;37397;53.226;10.400;2024-01-07T01:13:08;101639.22;;;1.97;71.87
51313;BME280;37397;53.226;10.400;2024-01-07T01:15:36;101641.66;;;1.95;71.95
51313;BME280;37397;53.226;10.400;2024-01-07T01:18:02;101627.56;;;1.88;71.96
51313;BME280;37397;53.226;10.400;2024-01-07T01:20:29;101647.66;;;1.97;71.93
51313;BME280;37397;53.226;10.400;2024-01-07T01:22:56;101638.81;;;1.88;71.70
51313;BME280;37397;53.226;10.400;2024-01-07T01:25:23;101659.34;;;1.92;71.89
51313;BME280;37397;53.226;10.400;2024-01-07T01:27:49;101664.97;;;1.92;71.77
51313;BME280;37397;53.226;10.400;2024-01-07T01:30:16;101657.72;;;1.91;71.66
51313;BME280;37397;53.226;10.400;2024-01-07T01:32:43;101672.19;;;1.89;71.77
51313;BME280;37397;53.226;10.400;2024-01-07T01:35:09;101677.00;;;1.89;71.72
51313;BME280;37397;53.226;10.400;2024-01-07T01:37:36;101677.81;;;1.93;71.70
51313;BME280;37397;53.226;10.400;2024-01-07T01:40:03;101688.28;;;1.92;71.88
51313;BME280;37397;53.226;10.400;2024-01-07T01:42:31;101675.41;;;1.91;71.72
51313;BME280;37397;53.226;10.400;2024-01-07T01:44:57;101681.84;;;1.92;71.63
51313;BME280;37397;53.226;10.400;2024-01-07T01:47:31;101687.44;;;1.88;71.64
51313;BME280;37397;53.226;10.400;2024-01-07T01:49:58;101685.44;;;1.85;71.59
51313;BME280;37397;53.226;10.400;2024-01-07T01:52:26;101699.13;;;1.90;71.45
51313;BME280;37397;53.226;10.400;2024-01-07T01:54:53;101701.13;;;1.86;71.78
51313;BME280;37397;53.226;10.400;2024-01-07T01:57:21;101709.56;;;1.86;71.52
51313;BME280;37397;53.226;10.400;2024-01-07T01:59:49;101713.59;;;1.89;71.42
51313;BME280;37397;53.226;10.400;2024-01-07T02:02:16;101710.38;;;1.87;71.35
51313;BME280;37397;53.226;10.400;2024-01-07T02:04:43;101716.81;;;1.87;71.56
51313;BME280;37397;53.226;10.400;2024-01-07T02:07:09;101709.16;;;1.84;71.59
51313;BME280;37397;53.226;10.400;2024-01-07T02:09:37;101717.22;;;1.86;71.62
51313;BME280;37397;53.226;10.400;2024-01-07T02:12:04;101717.22;;;1.86;71.38
51313;BME280;37397;53.226;10.400;2024-01-07T02:14:31;101722.03;;;1.85;71.54
51313;BME280;37397;53.226;10.400;2024-01-07T02:16:58;101721.22;;;1.85;71.52
51313;BME280;37397;53.226;10.400;2024-01-07T02:19:25;101730.06;;;1.83;71.42
51313;BME280;37397;53.226;10.400;2024-01-07T02:21:52;101726.44;;;1.82;71.51
51313;BME280;37397;53.226;10.400;2024-01-07T02:24:19;101730.88;;;1.84;71.52
51313;BME280;37397;53.226;10.400;2024-01-07T02:26:45;101730.88;;;1.84;71.54
51313;BME280;37397;53.226;10.400;2024-01-07T02:29:12;101731.28;;;1.82;71.49
51313;BME280;37397;53.226;10.400;2024-01-07T02:31:38;101733.28;;;1.81;71.44
51313;BME280;37397;53.226;10.400;2024-01-07T02:34:05;101734.06;;;1.78;71.49
51313;BME280;37397;53.226;10.400;2024-01-07T02:36:32;101741.31;;;1.79;71.49
51313;BME280;37397;53.226;10.400;2024-01-07T02:38:59;101734.88;;;1.75;71.41
51313;BME280;37397;53.226;10.400;2024-01-07T02:41:25;101748.13;;;1.78;71.47
51313;BME280;37397;53.226;10.400;2024-01-07T02:43:53;101744.53;;;1.74;71.34
51313;BME280;37397;53.226;10.400;2024-01-07T02:46:20;101749.38;;;1.77;71.36
51313;BME280;37397;53.226;10.400;2024-01-07T02:48:47;101756.59;;;1.78;71.44
51313;BME280;37397;53.226;10.400;2024-01-07T02:51:13;101754.16;;;1.77;71.71
51313;BME280;37397;53.226;10.400;2024-01-07T02:53:40;101751.75;;;1.75;71.48
51313;BME280;37397;53.226;10.400;2024-01-07T02:56:07;101750.94;;;1.71;71.35
51313;BME280;37397;53.226;10.400;2024-01-07T02:58:35;101760.19;;;1.75;71.44
51313;BME280;37397;53.226;10.400;2024-01-07T03:01:02;101754.16;;;1.70;71.39
51313;BME280;37397;53.226;10.400;2024-01-07T03:03:29;101757.38;;;1.75;71.52
51313;BME280;37397;53.226;10.400;2024-01-07T03:05:55;101754.16;;;1.73;71.15
51313;BME280;37397;53.226;10.400;2024-01-07T03:08:22;101765.41;;;1.73;71.38
51313;BME280;37397;53.226;10.400;2024-01-07T03:10:49;101769.41;;;1.72;71.33
51313;BME280;37397;53.226;10.400;2024-01-07T03:13:15;101769.41;;;1.72;71.24
51313;BME280;37397;53.226;10.400;2024-01-07T03:15:42;101764.22;;;1.71;71.42
51313;BME280;37397;53.226;10.400;2024-01-07T03:18:08;101773.47;;;1.71;71.13
51313;BME280;37397;53.226;10.400;2024-01-07T03:20:35;101777.47;;;1.70;71.18
51313;BME280;37397;53.226;10.400;2024-01-07T03:23:01;101771.84;;;1.70;71.13
51313;BME280;37397;53.226;10.400;2024-01-07T03:25:28;101771.03;;;1.70;71.26
51313;BME280;37397;53.226;10.400;2024-01-07T03:27:55;101770.22;;;1.66;71.25
51313;BME280;37397;53.226;10.400;2024-01-07T03:30:22;101776.63;;;1.62;71.11
51313;BME280;37397;53.226;10.400;2024-01-07T03:32:49;101775.03;;;1.65;71.05
51313;BME280;37397;53.226;10.400;2024-01-07T03:35:16;101779.81;;;1.61;70.97
51313;BME280;37397;53.226;10.400;2024-01-07T03:37:42;101774.22;;;1.61;70.94
51313;BME280;37397;53.226;10.400;2024-01-07T03:40:10;101781.44;;;1.62;71.13
51313;BME280;37397;53.226;10.400;2024-01-07T03:42:38;101787.88;;;1.59;71.10
51313;BME280;37397;53.226;10.400;2024-01-07T03:45:04;101787.84;;;1.55;71.04
51313;BME280;37397;53.226;10.400;2024-01-07T03:47:31;101790.69;;;1.59;71.08
51313;BME280;37397;53.226;10.400;2024-01-07T03:49:58;101797.53;;;1.58;71.05
51313;BME280;37397;53.226;10.400;2024-01-07T03:52:25;101801.53;;;1.57;70.98
51313;BME280;37397;53.226;10.400;2024-01-07T03:54:51;101805.53;;;1.56;71.22
51313;BME280;37397;53.226;10.400;2024-01-07T03:57:18;101804.75;;;1.55;71.16
51313;BME280;37397;53.226;10.400;2024-01-07T03:59:44;101802.72;;;1.56;71.27
51313;BME280;37397;53.226;10.400;2024-01-07T04:02:11;101809.56;;;1.55;71.22
51313;BME280;37397;53.226;10.400;2024-01-07T04:04:38;101803.94;;;1.55;71.17
51313;BME280;37397;53.226;10.400;2024-01-07T04:07:05;101810.34;;;1.52;71.28
51313;BME280;37397;53.226;10.400;2024-01-07T04:09:31;101818.41;;;1.53;71.35
51313;BME280;37397;53.226;10.400;2024-01-07T04:11:58;101824.81;;;1.54;71.15
51313;BME280;37397;53.226;10.400;2024-01-07T04:14:24;101823.19;;;1.53;71.04
51313;BME280;37397;53.226;10.400;2024-01-07T04:16:53;101834.44;;;1.53;71.36
51313;BME280;37397;53.226;10.400;2024-01-07T04:19:20;101830.84;;;1.52;71.34
51313;BME280;37397;53.226;10.400;2024-01-07T04:21:46;101836.84;;;1.47;71.34
51313;BME280;37397;53.226;10.400;2024-01-07T04:24:13;101839.25;;;1.45;70.99
51313;BME280;37397;53.226;10.400;2024-01-07T04:26:40;101839.28;;;1.49;71.14
51313;BME280;37397;53.226;10.400;2024-01-07T04:29:07;101846.09;;;1.48;71.22
51313;BME280;37397;53.226;10.400;2024-01-07T04:31:33;101843.66;;;1.46;71.23
51313;BME280;37397;53.226;10.400;2024-01-07T04:34:00;101844.50;;;1.47;71.33
51313;BME280;37397;53.226;10.400;2024-01-07T04:36:27;101846.47;;;1.46;71.32
51313;BME280;37397;53.226;10.400;2024-01-07T04:38:53;101844.06;;;1.44;71.25
51313;BME280;37397;53.226;10.400;2024-01-07T04:41:20;101844.88;;;1.45;71.48
51313;BME280;37397;53.226;10.400;2024-01-07T04:43:46;101858.56;;;1.47;71.55
51313;BME280;37397;53.226;10.400;2024-01-07T04:46:13;101841.22;;;1.41;71.17
51313;BME280;37397;53.226;10.400;2024-01-07T04:48:40;101841.63;;;1.43;71.50
51313;BME280;37397;53.226;10.400;2024-01-07T04:51:07;101841.25;;;1.44;71.37
51313;BME280;37397;53.226;10.400;2024-01-07T04:53:35;101851.72;;;1.48;71.52
51313;BME280;37397;53.226;10.400;2024-01-07T04:56:02;101847.31;;;1.47;71.55
51313;BME280;37397;53.226;10.400;2024-01-07T04:58:29;101850.13;;;1.47;71.70
51313;BME280;37397;53.226;10.400;2024-01-07T05:00:55;101854.13;;;1.45;71.44
51313;BME280;37397;53.226;10.400;2024-01-07T05:03:22;101859.75;;;1.45;71.70
51313;BME280;37397;53.226;10.400;2024-01-07T05:05:48;101860.13;;;1.44;71.51
51313;BME280;37397;53.226;10.400;2024-01-07T05:08:15;101867.38;;;1.45;71.55
51313;BME280;37397;53.226;10.400;2024-01-07T05:10:41;101868.56;;;1.44;71.49
51313;BME280;37397;53.226;10.400;2024-01-07T05:13:08;101864.97;;;1.43;71.43
51313;BME280;37397;53.226;10.400;2024-01-07T05:15:35;101862.53;;;1.42;71.51
51313;BME280;37397;53.226;10.400;2024-01-07T05:18:01;101866.56;;;1.44;71.57
51313;BME280;37397;53.226;10.400;2024-01-07T05:20:28;101866.56;;;1.44;71.76
51313;BME280;37397;53.226;10.400;2024-01-07T05:22:55;101869.75;;;1.43;71.58
51313;BME280;37397;53.226;10.400;2024-01-07T05:25:21;101876.22;;;1.43;71.57
51313;BME280;37397;53.226;10.400;2024-01-07T05:27:48;101868.56;;;1.40;71.46
51313;BME280;37397;53.226;10.400;2024-01-07T05:30:15;101882.63;;;1.40;71.58
51313;BME280;37397;53.226;10.400;2024-01-07T05:32:41;101876.94;;;1.37;71.29
51313;BME280;37397;53.226;10.400;2024-01-07T05:35:08;101874.56;;;1.39;71.47
51313;BME280;37397;53.226;10.400;2024-01-07T05:37:35;101890.66;;;1.42;71.38
51313;BME280;37397;53.226;10.400;2024-01-07T05:40:01;101891.47;;;1.42;71.67
51313;BME280;37397;53.226;10.400;2024-01-07T05:42:28;101898.72;;;1.43;71.67
51313;BME280;37397;53.226;10.400;2024-01-07T05:44:55;101897.09;;;1.42;71.57
51313;BME280;37397;53.226;10.400;2024-01-07T05:47:21;101903.13;;;1.44;71.66
51313;BME280;37397;53.226;10.400;2024-01-07T05:49:48;101900.31;;;1.44;71.64
51313;BME280;37397;53.226;10.400;2024-01-07T05:52:15;101898.72;;;1.43;71.67
51313;BME280;37397;53.226;10.400;2024-01-07T05:54:41;101902.72;;;1.42;71.67
51313;BME280;37397;53.226;10.400;2024-01-07T05:57:08;101901.09;;;1.41;71.42
51313;BME280;37397;53.226;10.400;2024-01-07T05:59:34;101907.16;;;1.43;71.83
51313;BME280;37397;53.226;10.400;2024-01-07T06:02:01;101913.97;;;1.42;71.72
51313;BME280;37397;53.226;10.400;2024-01-07T06:04:27;101912.78;;;1.43;71.58
51313;BME280;37397;53.226;10.400;2024-01-07T06:06:54;101924.03;;;1.43;71.69
51313;BME280;37397;53.226;10.400;2024-01-07T06:09:21;101931.25;;;1.44;71.76
51313;BME280;37397;53.226;10.400;2024-01-07T06:11:48;101932.47;;;1.43;71.83
51313;BME280;37397;53.226;10.400;2024-01-07T06:14:14;101946.94;;;1.45;71.76
51313;BME280;37397;53.226;10.400;2024-01-07T06:16:42;101941.69;;;1.40;71.51
51313;BME280;37397;53.226;10.400;2024-01-07T06:19:08;101953.75;;;1.44;71.72
51313;BME280;37397;53.226;10.400;2024-01-07T06:21:35;101946.94;;;1.45;71.47
51313;BME280;37397;53.226;10.400;2024-01-07T06:24:02;101952.56;;;1.45;71.74
51313;BME280;37397;53.226;10.400;2024-01-07T06:26:28;101949.75;;;1.45;71.69
51313;BME280;37397;53.226;10.400;2024-01-07T06:28:55;101957.38;;;1.45;71.78
51313;BME280;37397;53.226;10.400;2024-01-07T06:31:21;101962.19;;;1.44;71.54
51313;BME280;37397;53.226;10.400;2024-01-07T06:33:48;101960.59;;;1.43;71.63
51313;BME280;37397;53.226;10.400;2024-01-07T06:36:15;101963.81;;;1.45;71.52
51313;BME280;37397;53.226;10.400;2024-01-07T06:38:41;101954.19;;;1.47;71.85
51313;BME280;37397;53.226;10.400;2024-01-07T06:41:09;101963.44;;;1.47;71.74
51313;BME280;37397;53.226;10.400;2024-01-07T06:43:36;101970.22;;;1.42;71.82
51313;BME280;37397;53.226;10.400;2024-01-07T06:46:02;101959.00;;;1.46;71.81
51313;BME280;37397;53.226;10.400;2024-01-07T06:48:29;101962.19;;;1.44;71.75
51313;BME280;37397;53.226;10.400;2024-01-07T06:50:57;101972.25;;;1.45;71.91
51313;BME280;37397;53.226;10.400;2024-01-07T06:53:23;101971.06;;;1.47;71.64
51313;BME280;37397;53.226;10.400;2024-01-07T06:55:50;101980.69;;;1.45;71.78
51313;BME280;37397;53.226;10.400;2024-01-07T06:58:16;101976.25;;;1.44;71.77
51313;BME280;37397;53.226;10.400;2024-01-07T07:00:43;101972.63;;;1.44;71.79
51313;BME280;37397;53.226;10.400;2024-01-07T07:03:10;101979.84;;;1.41;71.47
51313;BME280;37397;53.226;10.400;2024-01-07T07:05:37;101982.25;;;1.39;71.42
51313;BME280;37397;53.226;10.400;2024-01-07T07:08:05;101985.84;;;1.40;71.64
51313;BME280;37397;53.226;10.400;2024-01-07T07:10:31;101983.88;;;1.44;71.50
51313;BME280;37397;53.226;10.400;2024-01-07T07:12:58;101988.72;;;1.43;71.54
51313;BME280;37397;53.226;10.400;2024-01-07T07:15:24;101994.34;;;1.43;71.63
51313;BME280;37397;53.226;10.400;2024-01-07T07:17:53;101994.34;;;1.43;71.54
51313;BME280;37397;53.226;10.400;2024-01-07T07:20:19;101995.13;;;1.40;71.81
51313;BME280;37397;53.226;10.400;2024-01-07T07:22:46;101992.34;;;1.44;71.68
51313;BME280;37397;53.226;10.400;2024-01-07T07:25:12;101998.75;;;1.44;71.49
51313;BME280;37397;53.226;10.400;2024-01-07T07:27:39;102004.34;;;1.41;71.72
51313;BME280;37397;53.226;10.400;2024-01-07T07:30:06;102010.44;;;1.47;71.79
51313;BME280;37397;53.226;10.400;2024-01-07T07:32:33;102016.06;;;1.47;71.56
51313;BME280;37397;53.226;10.400;2024-01-07T07:35:00;102023.28;;;1.48;71.80
51313;BME280;37397;53.226;10.400;2024-01-07T07:37:26;102016.84;;;1.43;71.92
51313;BME280;37397;53.226;10.400;2024-01-07T07:39:53;102028.91;;;1.48;71.75
51313;BME280;37397;53.226;10.400;2024-01-07T07:42:20;102025.69;;;1.45;71.72
51313;BME280;37397;53.226;10.400;2024-01-07T07:44:47;102027.31;;;1.47;71.82
51313;BME280;37397;53.226;10.400;2024-01-07T07:47:14;102036.59;;;1.51;71.86
51313;BME280;37397;53.226;10.400;2024-01-07T07:49:40;102039.41;;;1.51;71.96
51313;BME280;37397;53.226;10.400;2024-01-07T07:52:08;102038.22;;;1.52;71.78
51313;BME280;37397;53.226;10.400;2024-01-07T07:54:38;102042.22;;;1.51;71.82
51313;BME280;37397;53.226;10.400;2024-01-07T07:57:05;102042.59;;;1.49;71.87
51313;BME280;37397;53.226;10.400;2024-01-07T07:59:31;102049.03;;;1.50;71.98
51313;BME280;37397;53.226;10.400;2024-01-07T08:01:58;102055.09;;;1.52;71.95
51313;BME280;37397;53.226;10.400;2024-01-07T08:04:26;102049.03;;;1.50;71.96
51313;BME280;37397;53.226;10.400;2024-01-07T08:06:53;102053.88;;;1.53;71.90
51313;BME280;37397;53.226;10.400;2024-01-07T08:09:20;102039.72;;;1.42;72.07
51313;BME280;37397;53.226;10.400;2024-01-07T08:11:46;102067.94;;;1.53;71.76
51313;BME280;37397;53.226;10.400;2024-01-07T08:14:13;102071.59;;;1.53;71.77
51313;BME280;37397;53.226;10.400;2024-01-07T08:16:39;102074.00;;;1.55;72.05
51313;BME280;37397;53.226;10.400;2024-01-07T08:19:06;102067.16;;;1.56;71.96
51313;BME280;37397;53.226;10.400;2024-01-07T08:21:32;102067.94;;;1.53;72.05
51313;BME280;37397;53.226;10.400;2024-01-07T08:24:01;102075.59;;;1.56;72.06
51313;BME280;37397;53.226;10.400;2024-01-07T08:26:30;102071.59;;;1.57;72.13
51313;BME280;37397;53.226;10.400;2024-01-07T08:28:57;102078.88;;;1.58;72.00
51313;BME280;37397;53.226;10.400;2024-01-07T08:31:24;102084.50;;;1.58;72.07
51313;BME280;37397;53.226;10.400;2024-01-07T08:33:51;102071.53;;;1.50;72.04
51313;BME280;37397;53.226;10.400;2024-01-07T08:36:18;102086.47;;;1.57;72.04
51313;BME280;37397;53.226;10.400;2024-01-07T08:38:45;102091.72;;;1.59;71.94
51313;BME280;37397;53.226;10.400;2024-01-07T08:41:15;102091.31;;;1.60;71.96
51313;BME280;37397;53.226;10.400;2024-01-07T08:43:42;102090.94;;;1.62;71.92
51313;BME280;37397;53.226;10.400;2024-01-07T08:46:08;102090.91;;;1.58;71.97
51313;BME280;37397;53.226;10.400;2024-01-07T08:48:35;102096.16;;;1.60;72.18
51313;BME280;37397;53.226;10.400;2024-01-07T08:51:02;102107.41;;;1.60;72.07
51313;BME280;37397;53.226;10.400;2024-01-07T08:53:29;102107.81;;;1.62;71.83
51313;BME280;37397;53.226;10.400;2024-01-07T08:55:56;102120.72;;;1.63;72.11
51313;BME280;37397;53.226;10.400;2024-01-07T08:58:22;102114.22;;;1.59;72.11
51313;BME280;37397;53.226;10.400;2024-01-07T09:00:49;102115.09;;;1.63;71.94
51313;BME280;37397;53.226;10.400;2024-01-07T09:03:16;102111.81;;;1.61;72.14
51313;BME280;37397;53.226;10.400;2024-01-07T09:05:42;102129.56;;;1.65;71.93
51313;BME280;37397;53.226;10.400;2024-01-07T09:08:09;102111.03;;;1.60;71.91
51313;BME280;37397;53.226;10.400;2024-01-07T09:10:37;102117.50;;;1.64;71.77
51313;BME280;37397;53.226;10.400;2024-01-07T09:13:04;102128.31;;;1.62;71.92
51313;BME280;37397;53.226;10.400;2024-01-07T09:15:30;102115.03;;;1.59;71.66
51313;BME280;37397;53.226;10.400;2024-01-07T09:17:57;102115.44;;;1.58;71.67
51313;BME280;37397;53.226;10.400;2024-01-07T09:20:24;102129.56;;;1.65;71.94
51313;BME280;37397;53.226;10.400;2024-01-07T09:22:50;102144.81;;;1.64;71.75
51313;BME280;37397;53.226;10.400;2024-01-07T09:25:17;102124.66;;;1.55;71.71
51313;BME280;37397;53.226;10.400;2024-01-07T09:27:44;102151.28;;;1.64;71.61
51313;BME280;37397;53.226;10.400;2024-01-07T09:30:10;102147.25;;;1.66;71.77
51313;BME280;37397;53.226;10.400;2024-01-07T09:32:41;102151.28;;;1.64;71.59
51313;BME280;37397;53.226;10.400;2024-01-07T09:35:08;102146.41;;;1.61;71.66
51313;BME280;37397;53.226;10.400;2024-01-07T09:37:35;102156.84;;;1.61;71.56
51313;BME280;37397;53.226;10.400;2024-01-07T09:40:02;102159.34;;;1.66;71.53
51313;BME280;37397;53.226;10.400;2024-01-07T09:42:30;102156.06;;;1.64;71.48
51313;BME280;37397;53.226;10.400;2024-01-07T09:45:02;102163.31;;;1.65;71.28
51313;BME280;37397;53.226;10.400;2024-01-07T09:47:30;102166.16;;;1.65;71.76
51313;BME280;37397;53.226;10.400;2024-01-07T09:49:57;102167.72;;;1.62;71.80
51313;BME280;37397;53.226;10.400;2024-01-07T09:52:24;102173.72;;;1.61;71.45
51313;BME280;37397;53.226;10.400;2024-01-07T09:54:58;102175.75;;;1.64;71.32
51313;BME280;37397;53.226;10.400;2024-01-07T09:57:27;102172.16;;;1.63;71.44
51313;BME280;37397;53.226;10.400;2024-01-07T09:59:53;102177.78;;;1.63;71.41
51313;BME280;37397;53.226;10.400;2024-01-07T10:02:20;102178.53;;;1.57;71.31
51313;BME280;37397;53.226;10.400;2024-01-07T10:04:49;102178.97;;;1.62;71.06
51313;BME280;37397;53.226;10.400;2024-01-07T10:07:16;102155.22;;;1.56;71.28
51313;BME280;37397;53.226;10.400;2024-01-07T10:09:43;102175.34;;;1.62;71.33
51313;BME280;37397;53.226;10.400;2024-01-07T10:12:10;102171.34;;;1.63;71.08
51313;BME280;37397;53.226;10.400;2024-01-07T10:14:39;102166.88;;;1.58;71.32
51313;BME280;37397;53.226;10.400;2024-01-07T10:17:15;102170.13;;;1.64;71.36
51313;BME280;37397;53.226;10.400;2024-01-07T10:19:44;102181.78;;;1.62;71.36
51313;BME280;37397;53.226;10.400;2024-01-07T10:22:12;102170.09;;;1.60;71.44
51313;BME280;37397;53.226;10.400;2024-01-07T10:24:40;102188.66;;;1.65;71.40
51313;BME280;37397;53.226;10.400;2024-01-07T10:27:08;102184.22;;;1.64;71.40
51313;BME280;37397;53.226;10.400;2024-01-07T10:29:35;102185.84;;;1.65;71.31
51313;BME280;37397;53.226;10.400;2024-01-07T10:32:03;102176.22;;;1.66;71.37
51313;BME280;37397;53.226;10.400;2024-01-07T10:34:32;102175.00;;;1.67;71.26
51313;BME280;37397;53.226;10.400;2024-01-07T10:37:01;102173.81;;;1.68;71.42
51313;BME280;37397;53.226;10.400;2024-01-07T10:39:28;102172.16;;;1.63;71.49
51313;BME280;37397;53.226;10.400;2024-01-07T10:41:55;102177.81;;;1.67;71.39
51313;BME280;37397;53.226;10.400;2024-01-07T10:44:29;102180.63;;;1.67;71.58
51313;BME280;37397;53.226;10.400;2024-01-07T10:46:57;102171.38;;;1.67;71.51
51313;BME280;37397;53.226;10.400;2024-01-07T10:49:27;102170.19;;;1.68;71.71
51313;BME280;37397;53.226;10.400;2024-01-07T10:52:20;102185.50;;;1.70;71.60
51313;BME280;37397;53.226;10.400;2024-01-07T10:54:47;102181.91;;;1.73;71.52
51313;BME280;37397;53.226;10.400;2024-01-07T11:00:00;102187.53;;;1.73;71.62
51313;BME280;37397;53.226;10.400;2024-01-07T11:02:27;102178.66;;;1.71;71.47
51313;BME280;37397;53.226;10.400;2024-01-07T11:05:04;102179.09;;;1.73;71.59
51313;BME280;37397;53.226;10.400;2024-01-07T11:07:41;102176.69;;;1.75;71.65
51313;BME280;37397;53.226;10.400;2024-01-07T11:10:12;102182.31;;;1.75;71.68
51313;BME280;37397;53.226;10.400;2024-01-07T11:12:40;102185.13;;;1.75;71.61
51313;BME280;37397;53.226;10.400;2024-01-07T11:15:07;102186.34;;;1.74;71.41
51313;BME280;37397;53.226;10.400;2024-01-07T11:17:42;102179.47;;;1.72;71.61
51313;BME280;37397;53.226;10.400;2024-01-07T11:20:16;102188.00;;;1.79;71.50
51313;BME280;37397;53.226;10.400;2024-01-07T11:22:44;102185.19;;;1.79;71.38
51313;BME280;37397;53.226;10.400;2024-01-07T11:25:28;102190.00;;;1.78;71.20
51313;BME280;37397;53.226;10.400;2024-01-07T11:27:57;102186.75;;;1.76;71.30
51313;BME280;37397;53.226;10.400;2024-01-07T11:30:24;102181.91;;;1.73;71.23
51313;BME280;37397;53.226;10.400;2024-01-07T11:32:58;102180.34;;;1.76;71.20
51313;BME280;37397;53.226;10.400;2024-01-07T11:35:53;102185.56;;;1.77;71.38
51313;BME280;37397;53.226;10.400;2024-01-07T11:38:20;102172.28;;;1.74;71.41
51313;BME280;37397;53.226;10.400;2024-01-07T11:40:49;102175.50;;;1.76;71.41
51313;BME280;37397;53.226;10.400;2024-01-07T11:43:16;102179.56;;;1.79;71.43
51313;BME280;37397;53.226;10.400;2024-01-07T11:45:42;102173.03;;;1.71;71.51
51313;BME280;37397;53.226;10.400;2024-01-07T11:48:09;102181.13;;;1.76;71.53
51313;BME280;37397;53.226;10.400;2024-01-07T11:50:35;102189.22;;;1.81;71.39
51313;BME280;37397;53.226;10.400;2024-01-07T11:53:02;102180.34;;;1.79;71.50
51313;BME280;37397;53.226;10.400;2024-01-07T11:55:29;102171.06;;;1.75;71.33
51313;BME280;37397;53.226;10.400;2024-01-07T11:58:01;102183.19;;;1.83;71.10
51313;BME280;37397;53.226;10.400;2024-01-07T12:00:31;102178.41;;;1.84;71.10
51313;BME280;37397;53.226;10.400;2024-01-07T12:03:02;102181.22;;;1.84;70.92
51313;BME280;37397;53.226;10.400;2024-01-07T12:05:30;102176.38;;;1.84;70.68
51313;BME280;37397;53.226;10.400;2024-01-07T12:07:56;102188.47;;;1.88;71.08
51313;BME280;37397;53.226;10.400;2024-01-07T12:10:23;102165.09;;;1.80;71.04
51313;BME280;37397;53.226;10.400;2024-01-07T12:12:50;102171.56;;;1.85;70.63
51313;BME280;37397;53.226;10.400;2024-01-07T12:15:21;102182.91;;;1.92;70.74
51313;BME280;37397;53.226;10.400;2024-01-07T12:17:58;102182.06;;;1.91;70.63
51313;BME280;37397;53.226;10.400;2024-01-07T12:20:27;102174.78;;;1.87;70.49
51313;BME280;37397;53.226;10.400;2024-01-07T12:22:57;102191.75;;;1.94;70.67
51313;BME280;37397;53.226;10.400;2024-01-07T12:25:25;102178.88;;;1.93;70.55
51313;BME280;37397;53.226;10.400;2024-01-07T12:27:52;102183.72;;;1.96;70.47
51313;BME280;37397;53.226;10.400;2024-01-07T12:30:20;102180.13;;;1.95;70.64
51313;BME280;37397;53.226;10.400;2024-01-07T12:32:47;102188.16;;;1.97;70.51
51313;BME280;37397;53.226;10.400;2024-01-07T12:35:14;102180.53;;;1.97;70.59
51313;BME280;37397;53.226;10.400;2024-01-07T12:37:41;102181.31;;;1.98;70.35
51313;BME280;37397;53.226;10.400;2024-01-07T12:40:08;102194.22;;;1.99;70.44
51313;BME280;37397;53.226;10.400;2024-01-07T12:42:37;102184.13;;;1.98;70.34
51313;BME280;37397;53.226;10.400;2024-01-07T12:45:07;102184.59;;;2.00;70.64
51313;BME280;37397;53.226;10.400;2024-01-07T12:47:35;102181.38;;;2.02;70.43
51313;BME280;37397;53.226;10.400;2024-01-07T12:50:02;102186.94;;;1.98;70.39
51313;BME280;37397;53.226;10.400;2024-01-07T12:52:28;102190.22;;;2.00;70.45
51313;BME280;37397;53.226;10.400;2024-01-07T12:54:55;102184.50;;;1.93;70.20